<?xml version="1.0" encoding="UTF-8"?>
<gpx creator="Wikiloc - https://www.wikiloc.com" version="1.1" xmlns="http://www.topografix.com/GPX/1/1" xmlns:xsi="http://www.w3.org/2001/XMLSchema-instance" xsi:schemaLocation="http://www.topografix.com/GPX/1/1 http://www.topografix.com/GPX/1/1/gpx.xsd">
  <metadata>
    <name>Wikiloc - Gorges de Carança</name>
    <author>
      <name>wildkids.es</name>
      <link href="https://www.wikiloc.com/wikiloc/user.do?id=1470485">
        <text>wildkids.es on Wikiloc</text>
      </link>
    </author>
    <link href="https://www.wikiloc.com/hiking-trails/gorges-de-caranca-86370098">
      <text>Gorges de Carança on Wikiloc</text>
    </link>
    <time>2021-10-14T13:42:18Z</time>
  </metadata>
  <trk>
    <name>Gorges de Carança</name>
    <cmt></cmt>
    <desc></desc>
    <trkseg>
      <trkpt lat="42.522995" lon="2.221366">
        <ele>838.227</ele>
        <time>2021-10-14T13:52:01Z</time>
      </trkpt>
      <trkpt lat="42.523288" lon="2.221272">
        <ele>834.368</ele>
        <time>2021-10-14T13:52:41Z</time>
      </trkpt>
      <trkpt lat="42.523358" lon="2.221160">
        <ele>832.814</ele>
        <time>2021-10-14T13:53:21Z</time>
      </trkpt>
      <trkpt lat="42.523241" lon="2.220859">
        <ele>835.908</ele>
        <time>2021-10-14T13:54:01Z</time>
      </trkpt>
      <trkpt lat="42.522976" lon="2.220645">
        <ele>842.660</ele>
        <time>2021-10-14T13:54:41Z</time>
      </trkpt>
      <trkpt lat="42.522906" lon="2.220744">
        <ele>843.778</ele>
        <time>2021-10-14T13:55:21Z</time>
      </trkpt>
      <trkpt lat="42.522719" lon="2.220682">
        <ele>849.265</ele>
        <time>2021-10-14T13:56:01Z</time>
      </trkpt>
      <trkpt lat="42.522464" lon="2.220791">
        <ele>850.649</ele>
        <time>2021-10-14T13:56:41Z</time>
      </trkpt>
      <trkpt lat="42.522367" lon="2.220783">
        <ele>853.572</ele>
        <time>2021-10-14T13:57:21Z</time>
      </trkpt>
      <trkpt lat="42.522308" lon="2.220832">
        <ele>852.942</ele>
        <time>2021-10-14T13:58:01Z</time>
      </trkpt>
      <trkpt lat="42.522122" lon="2.220829">
        <ele>856.671</ele>
        <time>2021-10-14T13:58:41Z</time>
      </trkpt>
      <trkpt lat="42.522005" lon="2.220761">
        <ele>860.950</ele>
        <time>2021-10-14T13:59:21Z</time>
      </trkpt>
      <trkpt lat="42.521956" lon="2.220755">
        <ele>861.771</ele>
        <time>2021-10-14T14:00:01Z</time>
      </trkpt>
      <trkpt lat="42.521842" lon="2.220759">
        <ele>865.941</ele>
        <time>2021-10-14T14:00:41Z</time>
      </trkpt>
      <trkpt lat="42.521729" lon="2.220674">
        <ele>870.615</ele>
        <time>2021-10-14T14:01:21Z</time>
      </trkpt>
      <trkpt lat="42.521657" lon="2.220673">
        <ele>873.008</ele>
        <time>2021-10-14T14:02:01Z</time>
      </trkpt>
      <trkpt lat="42.521509" lon="2.220376">
        <ele>879.875</ele>
        <time>2021-10-14T14:02:41Z</time>
      </trkpt>
      <trkpt lat="42.521430" lon="2.220215">
        <ele>883.693</ele>
        <time>2021-10-14T14:03:21Z</time>
      </trkpt>
      <trkpt lat="42.521275" lon="2.219961">
        <ele>893.610</ele>
        <time>2021-10-14T14:04:01Z</time>
      </trkpt>
      <trkpt lat="42.521205" lon="2.219758">
        <ele>896.814</ele>
        <time>2021-10-14T14:04:41Z</time>
      </trkpt>
      <trkpt lat="42.521134" lon="2.219649">
        <ele>901.867</ele>
        <time>2021-10-14T14:05:21Z</time>
      </trkpt>
      <trkpt lat="42.521068" lon="2.219327">
        <ele>902.657</ele>
        <time>2021-10-14T14:06:01Z</time>
      </trkpt>
      <trkpt lat="42.520993" lon="2.219158">
        <ele>905.846</ele>
        <time>2021-10-14T14:06:41Z</time>
      </trkpt>
      <trkpt lat="42.520901" lon="2.219041">
        <ele>911.145</ele>
        <time>2021-10-14T14:07:21Z</time>
      </trkpt>
      <trkpt lat="42.520643" lon="2.218737">
        <ele>924.392</ele>
        <time>2021-10-14T14:08:01Z</time>
      </trkpt>
      <trkpt lat="42.520491" lon="2.218485">
        <ele>932.573</ele>
        <time>2021-10-14T14:08:41Z</time>
      </trkpt>
      <trkpt lat="42.520409" lon="2.218428">
        <ele>938.120</ele>
        <time>2021-10-14T14:09:21Z</time>
      </trkpt>
      <trkpt lat="42.520384" lon="2.218580">
        <ele>941.608</ele>
        <time>2021-10-14T14:10:01Z</time>
      </trkpt>
      <trkpt lat="42.520256" lon="2.218443">
        <ele>949.847</ele>
        <time>2021-10-14T14:10:41Z</time>
      </trkpt>
      <trkpt lat="42.520214" lon="2.218410">
        <ele>952.625</ele>
        <time>2021-10-14T14:11:21Z</time>
      </trkpt>
      <trkpt lat="42.520212" lon="2.218538">
        <ele>954.232</ele>
        <time>2021-10-14T14:12:01Z</time>
      </trkpt>
      <trkpt lat="42.520218" lon="2.218602">
        <ele>954.446</ele>
        <time>2021-10-14T14:12:41Z</time>
      </trkpt>
      <trkpt lat="42.520170" lon="2.218663">
        <ele>958.779</ele>
        <time>2021-10-14T14:13:21Z</time>
      </trkpt>
      <trkpt lat="42.520173" lon="2.218586">
        <ele>957.639</ele>
        <time>2021-10-14T14:14:01Z</time>
      </trkpt>
      <trkpt lat="42.520084" lon="2.218502">
        <ele>963.558</ele>
        <time>2021-10-14T14:14:41Z</time>
      </trkpt>
      <trkpt lat="42.519996" lon="2.218676">
        <ele>972.047</ele>
        <time>2021-10-14T14:15:21Z</time>
      </trkpt>
      <trkpt lat="42.519935" lon="2.218581">
        <ele>975.687</ele>
        <time>2021-10-14T14:16:01Z</time>
      </trkpt>
      <trkpt lat="42.519907" lon="2.218636">
        <ele>978.342</ele>
        <time>2021-10-14T14:16:41Z</time>
      </trkpt>
      <trkpt lat="42.519847" lon="2.218590">
        <ele>982.426</ele>
        <time>2021-10-14T14:17:21Z</time>
      </trkpt>
      <trkpt lat="42.519800" lon="2.218768">
        <ele>987.808</ele>
        <time>2021-10-14T14:18:01Z</time>
      </trkpt>
      <trkpt lat="42.519745" lon="2.218675">
        <ele>991.096</ele>
        <time>2021-10-14T14:18:41Z</time>
      </trkpt>
      <trkpt lat="42.519720" lon="2.218616">
        <ele>992.214</ele>
        <time>2021-10-14T14:19:21Z</time>
      </trkpt>
      <trkpt lat="42.519644" lon="2.218603">
        <ele>998.781</ele>
        <time>2021-10-14T14:20:01Z</time>
      </trkpt>
      <trkpt lat="42.519640" lon="2.218895">
        <ele>1002.265</ele>
        <time>2021-10-14T14:20:41Z</time>
      </trkpt>
      <trkpt lat="42.519735" lon="2.219313">
        <ele>1000.798</ele>
        <time>2021-10-14T14:21:21Z</time>
      </trkpt>
      <trkpt lat="42.519869" lon="2.219699">
        <ele>998.498</ele>
        <time>2021-10-14T14:22:01Z</time>
      </trkpt>
      <trkpt lat="42.519954" lon="2.220034">
        <ele>995.827</ele>
        <time>2021-10-14T14:22:41Z</time>
      </trkpt>
      <trkpt lat="42.520016" lon="2.220574">
        <ele>990.816</ele>
        <time>2021-10-14T14:23:21Z</time>
      </trkpt>
      <trkpt lat="42.519994" lon="2.220692">
        <ele>984.574</ele>
        <time>2021-10-14T14:24:01Z</time>
      </trkpt>
      <trkpt lat="42.519927" lon="2.220765">
        <ele>983.856</ele>
        <time>2021-10-14T14:24:41Z</time>
      </trkpt>
      <trkpt lat="42.519758" lon="2.220818">
        <ele>989.421</ele>
        <time>2021-10-14T14:25:21Z</time>
      </trkpt>
      <trkpt lat="42.519497" lon="2.220898">
        <ele>983.208</ele>
        <time>2021-10-14T14:26:01Z</time>
      </trkpt>
      <trkpt lat="42.519278" lon="2.220929">
        <ele>978.495</ele>
        <time>2021-10-14T14:26:41Z</time>
      </trkpt>
      <trkpt lat="42.519144" lon="2.220919">
        <ele>981.193</ele>
        <time>2021-10-14T14:27:21Z</time>
      </trkpt>
      <trkpt lat="42.518912" lon="2.220928">
        <ele>987.240</ele>
        <time>2021-10-14T14:28:01Z</time>
      </trkpt>
      <trkpt lat="42.518713" lon="2.220944">
        <ele>986.964</ele>
        <time>2021-10-14T14:28:41Z</time>
      </trkpt>
      <trkpt lat="42.518549" lon="2.220946">
        <ele>984.547</ele>
        <time>2021-10-14T14:29:21Z</time>
      </trkpt>
      <trkpt lat="42.518385" lon="2.221036">
        <ele>966.257</ele>
        <time>2021-10-14T14:30:01Z</time>
      </trkpt>
      <trkpt lat="42.518204" lon="2.221109">
        <ele>961.896</ele>
        <time>2021-10-14T14:30:41Z</time>
      </trkpt>
      <trkpt lat="42.518043" lon="2.221166">
        <ele>964.255</ele>
        <time>2021-10-14T14:31:21Z</time>
      </trkpt>
      <trkpt lat="42.517887" lon="2.221176">
        <ele>969.921</ele>
        <time>2021-10-14T14:32:01Z</time>
      </trkpt>
      <trkpt lat="42.517816" lon="2.221160">
        <ele>973.841</ele>
        <time>2021-10-14T14:32:41Z</time>
      </trkpt>
      <trkpt lat="42.517647" lon="2.221111">
        <ele>986.905</ele>
        <time>2021-10-14T14:33:21Z</time>
      </trkpt>
      <trkpt lat="42.517532" lon="2.221172">
        <ele>992.508</ele>
        <time>2021-10-14T14:34:01Z</time>
      </trkpt>
      <trkpt lat="42.517368" lon="2.221412">
        <ele>992.750</ele>
        <time>2021-10-14T14:34:41Z</time>
      </trkpt>
      <trkpt lat="42.517306" lon="2.221516">
        <ele>992.128</ele>
        <time>2021-10-14T14:35:21Z</time>
      </trkpt>
      <trkpt lat="42.517195" lon="2.221695">
        <ele>991.845</ele>
        <time>2021-10-14T14:36:01Z</time>
      </trkpt>
      <trkpt lat="42.517125" lon="2.221844">
        <ele>986.029</ele>
        <time>2021-10-14T14:36:41Z</time>
      </trkpt>
      <trkpt lat="42.516930" lon="2.221863">
        <ele>988.232</ele>
        <time>2021-10-14T14:37:21Z</time>
      </trkpt>
      <trkpt lat="42.516877" lon="2.221872">
        <ele>990.242</ele>
        <time>2021-10-14T14:38:01Z</time>
      </trkpt>
      <trkpt lat="42.516788" lon="2.221940">
        <ele>988.771</ele>
        <time>2021-10-14T14:38:41Z</time>
      </trkpt>
      <trkpt lat="42.516676" lon="2.221929">
        <ele>995.160</ele>
        <time>2021-10-14T14:39:21Z</time>
      </trkpt>
      <trkpt lat="42.516525" lon="2.221981">
        <ele>995.194</ele>
        <time>2021-10-14T14:40:01Z</time>
      </trkpt>
      <trkpt lat="42.516384" lon="2.222053">
        <ele>996.257</ele>
        <time>2021-10-14T14:40:41Z</time>
      </trkpt>
      <trkpt lat="42.516216" lon="2.222148">
        <ele>989.122</ele>
        <time>2021-10-14T14:41:21Z</time>
      </trkpt>
      <trkpt lat="42.516092" lon="2.222028">
        <ele>991.908</ele>
        <time>2021-10-14T14:42:01Z</time>
      </trkpt>
      <trkpt lat="42.516013" lon="2.222013">
        <ele>990.767</ele>
        <time>2021-10-14T14:42:41Z</time>
      </trkpt>
      <trkpt lat="42.515881" lon="2.222037">
        <ele>985.935</ele>
        <time>2021-10-14T14:43:21Z</time>
      </trkpt>
      <trkpt lat="42.515718" lon="2.222057">
        <ele>984.242</ele>
        <time>2021-10-14T14:44:01Z</time>
      </trkpt>
      <trkpt lat="42.515598" lon="2.222032">
        <ele>986.776</ele>
        <time>2021-10-14T14:44:41Z</time>
      </trkpt>
      <trkpt lat="42.515469" lon="2.222032">
        <ele>987.219</ele>
        <time>2021-10-14T14:45:21Z</time>
      </trkpt>
      <trkpt lat="42.515352" lon="2.222066">
        <ele>985.459</ele>
        <time>2021-10-14T14:46:01Z</time>
      </trkpt>
      <trkpt lat="42.515195" lon="2.222071">
        <ele>984.268</ele>
        <time>2021-10-14T14:46:41Z</time>
      </trkpt>
      <trkpt lat="42.515094" lon="2.222060">
        <ele>983.797</ele>
        <time>2021-10-14T14:47:21Z</time>
      </trkpt>
      <trkpt lat="42.514985" lon="2.222021">
        <ele>985.165</ele>
        <time>2021-10-14T14:48:01Z</time>
      </trkpt>
      <trkpt lat="42.514858" lon="2.221981">
        <ele>988.068</ele>
        <time>2021-10-14T14:48:41Z</time>
      </trkpt>
      <trkpt lat="42.514656" lon="2.222052">
        <ele>983.714</ele>
        <time>2021-10-14T14:49:21Z</time>
      </trkpt>
      <trkpt lat="42.514515" lon="2.222036">
        <ele>985.908</ele>
        <time>2021-10-14T14:50:01Z</time>
      </trkpt>
      <trkpt lat="42.514409" lon="2.222015">
        <ele>988.564</ele>
        <time>2021-10-14T14:50:41Z</time>
      </trkpt>
      <trkpt lat="42.514303" lon="2.221976">
        <ele>992.392</ele>
        <time>2021-10-14T14:51:21Z</time>
      </trkpt>
      <trkpt lat="42.514200" lon="2.221997">
        <ele>992.659</ele>
        <time>2021-10-14T14:52:01Z</time>
      </trkpt>
      <trkpt lat="42.514108" lon="2.222014">
        <ele>994.773</ele>
        <time>2021-10-14T14:52:41Z</time>
      </trkpt>
      <trkpt lat="42.514042" lon="2.222093">
        <ele>994.636</ele>
        <time>2021-10-14T14:53:21Z</time>
      </trkpt>
      <trkpt lat="42.513966" lon="2.222177">
        <ele>995.186</ele>
        <time>2021-10-14T14:54:01Z</time>
      </trkpt>
      <trkpt lat="42.513939" lon="2.222311">
        <ele>992.795</ele>
        <time>2021-10-14T14:54:41Z</time>
      </trkpt>
      <trkpt lat="42.513913" lon="2.222455">
        <ele>990.754</ele>
        <time>2021-10-14T14:55:21Z</time>
      </trkpt>
      <trkpt lat="42.513752" lon="2.222669">
        <ele>994.642</ele>
        <time>2021-10-14T14:56:01Z</time>
      </trkpt>
      <trkpt lat="42.513675" lon="2.222856">
        <ele>994.722</ele>
        <time>2021-10-14T14:56:41Z</time>
      </trkpt>
      <trkpt lat="42.513655" lon="2.223006">
        <ele>992.714</ele>
        <time>2021-10-14T14:57:21Z</time>
      </trkpt>
      <trkpt lat="42.513617" lon="2.223373">
        <ele>986.808</ele>
        <time>2021-10-14T14:58:01Z</time>
      </trkpt>
      <trkpt lat="42.513541" lon="2.223555">
        <ele>982.352</ele>
        <time>2021-10-14T14:58:41Z</time>
      </trkpt>
      <trkpt lat="42.513498" lon="2.223723">
        <ele>968.850</ele>
        <time>2021-10-14T14:59:21Z</time>
      </trkpt>
      <trkpt lat="42.513447" lon="2.223799">
        <ele>961.457</ele>
        <time>2021-10-14T15:00:01Z</time>
      </trkpt>
      <trkpt lat="42.513296" lon="2.223840">
        <ele>959.771</ele>
        <time>2021-10-14T15:00:41Z</time>
      </trkpt>
      <trkpt lat="42.513126" lon="2.223850">
        <ele>963.824</ele>
        <time>2021-10-14T15:01:21Z</time>
      </trkpt>
      <trkpt lat="42.513011" lon="2.223904">
        <ele>963.214</ele>
        <time>2021-10-14T15:02:01Z</time>
      </trkpt>
      <trkpt lat="42.512845" lon="2.224014">
        <ele>967.513</ele>
        <time>2021-10-14T15:02:41Z</time>
      </trkpt>
      <trkpt lat="42.512804" lon="2.224023">
        <ele>967.232</ele>
        <time>2021-10-14T15:03:21Z</time>
      </trkpt>
      <trkpt lat="42.512653" lon="2.223976">
        <ele>976.647</ele>
        <time>2021-10-14T15:04:01Z</time>
      </trkpt>
      <trkpt lat="42.512600" lon="2.223980">
        <ele>979.729</ele>
        <time>2021-10-14T15:04:41Z</time>
      </trkpt>
      <trkpt lat="42.512532" lon="2.224049">
        <ele>977.921</ele>
        <time>2021-10-14T15:05:21Z</time>
      </trkpt>
      <trkpt lat="42.512429" lon="2.223933">
        <ele>994.708</ele>
        <time>2021-10-14T15:06:01Z</time>
      </trkpt>
      <trkpt lat="42.512345" lon="2.223853">
        <ele>1008.742</ele>
        <time>2021-10-14T15:06:41Z</time>
      </trkpt>
      <trkpt lat="42.512258" lon="2.223835">
        <ele>1016.710</ele>
        <time>2021-10-14T15:07:21Z</time>
      </trkpt>
      <trkpt lat="42.512162" lon="2.223871">
        <ele>1013.587</ele>
        <time>2021-10-14T15:08:01Z</time>
      </trkpt>
      <trkpt lat="42.512038" lon="2.223941">
        <ele>1001.931</ele>
        <time>2021-10-14T15:08:41Z</time>
      </trkpt>
      <trkpt lat="42.511908" lon="2.223983">
        <ele>992.524</ele>
        <time>2021-10-14T15:09:21Z</time>
      </trkpt>
      <trkpt lat="42.511844" lon="2.223997">
        <ele>987.094</ele>
        <time>2021-10-14T15:10:01Z</time>
      </trkpt>
      <trkpt lat="42.511782" lon="2.223928">
        <ele>990.253</ele>
        <time>2021-10-14T15:10:41Z</time>
      </trkpt>
      <trkpt lat="42.511645" lon="2.223820">
        <ele>998.742</ele>
        <time>2021-10-14T15:11:21Z</time>
      </trkpt>
      <trkpt lat="42.511549" lon="2.223791">
        <ele>997.669</ele>
        <time>2021-10-14T15:12:01Z</time>
      </trkpt>
      <trkpt lat="42.511465" lon="2.223747">
        <ele>998.204</ele>
        <time>2021-10-14T15:12:41Z</time>
      </trkpt>
      <trkpt lat="42.511417" lon="2.223726">
        <ele>997.024</ele>
        <time>2021-10-14T15:13:21Z</time>
      </trkpt>
      <trkpt lat="42.511299" lon="2.223780">
        <ele>984.108</ele>
        <time>2021-10-14T15:14:01Z</time>
      </trkpt>
      <trkpt lat="42.511215" lon="2.223818">
        <ele>977.644</ele>
        <time>2021-10-14T15:14:41Z</time>
      </trkpt>
      <trkpt lat="42.511146" lon="2.223829">
        <ele>974.942</ele>
        <time>2021-10-14T15:15:21Z</time>
      </trkpt>
      <trkpt lat="42.511069" lon="2.223792">
        <ele>976.899</ele>
        <time>2021-10-14T15:16:01Z</time>
      </trkpt>
      <trkpt lat="42.511010" lon="2.223730">
        <ele>980.213</ele>
        <time>2021-10-14T15:16:41Z</time>
      </trkpt>
      <trkpt lat="42.510921" lon="2.223633">
        <ele>983.066</ele>
        <time>2021-10-14T15:17:21Z</time>
      </trkpt>
      <trkpt lat="42.510817" lon="2.223555">
        <ele>984.976</ele>
        <time>2021-10-14T15:18:01Z</time>
      </trkpt>
      <trkpt lat="42.510759" lon="2.223375">
        <ele>999.815</ele>
        <time>2021-10-14T15:18:41Z</time>
      </trkpt>
      <trkpt lat="42.510634" lon="2.223504">
        <ele>988.964</ele>
        <time>2021-10-14T15:19:21Z</time>
      </trkpt>
      <trkpt lat="42.510461" lon="2.223716">
        <ele>985.062</ele>
        <time>2021-10-14T15:20:01Z</time>
      </trkpt>
      <trkpt lat="42.510465" lon="2.223907">
        <ele>978.383</ele>
        <time>2021-10-14T15:20:41Z</time>
      </trkpt>
      <trkpt lat="42.510429" lon="2.224004">
        <ele>978.411</ele>
        <time>2021-10-14T15:21:21Z</time>
      </trkpt>
      <trkpt lat="42.510376" lon="2.224039">
        <ele>980.008</ele>
        <time>2021-10-14T15:22:01Z</time>
      </trkpt>
      <trkpt lat="42.510290" lon="2.224046">
        <ele>983.324</ele>
        <time>2021-10-14T15:22:41Z</time>
      </trkpt>
      <trkpt lat="42.510216" lon="2.224087">
        <ele>984.442</ele>
        <time>2021-10-14T15:23:21Z</time>
      </trkpt>
      <trkpt lat="42.510155" lon="2.224182">
        <ele>982.329</ele>
        <time>2021-10-14T15:24:01Z</time>
      </trkpt>
      <trkpt lat="42.510060" lon="2.224247">
        <ele>984.213</ele>
        <time>2021-10-14T15:24:41Z</time>
      </trkpt>
      <trkpt lat="42.510012" lon="2.224260">
        <ele>985.676</ele>
        <time>2021-10-14T15:25:21Z</time>
      </trkpt>
      <trkpt lat="42.509932" lon="2.224249">
        <ele>987.986</ele>
        <time>2021-10-14T15:26:01Z</time>
      </trkpt>
      <trkpt lat="42.509889" lon="2.224215">
        <ele>989.315</ele>
        <time>2021-10-14T15:26:41Z</time>
      </trkpt>
      <trkpt lat="42.509796" lon="2.224262">
        <ele>991.434</ele>
        <time>2021-10-14T15:27:21Z</time>
      </trkpt>
      <trkpt lat="42.509722" lon="2.224296">
        <ele>993.147</ele>
        <time>2021-10-14T15:28:01Z</time>
      </trkpt>
      <trkpt lat="42.509598" lon="2.224298">
        <ele>993.729</ele>
        <time>2021-10-14T15:28:41Z</time>
      </trkpt>
      <trkpt lat="42.509502" lon="2.224274">
        <ele>994.121</ele>
        <time>2021-10-14T15:29:21Z</time>
      </trkpt>
      <trkpt lat="42.509431" lon="2.224248">
        <ele>994.208</ele>
        <time>2021-10-14T15:30:01Z</time>
      </trkpt>
      <trkpt lat="42.509363" lon="2.224236">
        <ele>993.532</ele>
        <time>2021-10-14T15:30:41Z</time>
      </trkpt>
      <trkpt lat="42.509326" lon="2.224230">
        <ele>993.220</ele>
        <time>2021-10-14T15:31:21Z</time>
      </trkpt>
      <trkpt lat="42.509233" lon="2.224311">
        <ele>992.287</ele>
        <time>2021-10-14T15:32:01Z</time>
      </trkpt>
      <trkpt lat="42.509198" lon="2.224379">
        <ele>991.661</ele>
        <time>2021-10-14T15:32:41Z</time>
      </trkpt>
      <trkpt lat="42.509107" lon="2.224523">
        <ele>996.064</ele>
        <time>2021-10-14T15:33:21Z</time>
      </trkpt>
      <trkpt lat="42.509031" lon="2.224664">
        <ele>998.564</ele>
        <time>2021-10-14T15:34:01Z</time>
      </trkpt>
      <trkpt lat="42.509042" lon="2.224920">
        <ele>1003.993</ele>
        <time>2021-10-14T15:34:41Z</time>
      </trkpt>
      <trkpt lat="42.508985" lon="2.225022">
        <ele>1000.922</ele>
        <time>2021-10-14T15:35:21Z</time>
      </trkpt>
      <trkpt lat="42.508881" lon="2.225021">
        <ele>991.991</ele>
        <time>2021-10-14T15:36:01Z</time>
      </trkpt>
      <trkpt lat="42.508844" lon="2.225077">
        <ele>995.081</ele>
        <time>2021-10-14T15:36:41Z</time>
      </trkpt>
      <trkpt lat="42.508857" lon="2.225315">
        <ele>995.819</ele>
        <time>2021-10-14T15:37:21Z</time>
      </trkpt>
      <trkpt lat="42.508808" lon="2.225352">
        <ele>996.908</ele>
        <time>2021-10-14T15:38:01Z</time>
      </trkpt>
      <trkpt lat="42.508605" lon="2.225608">
        <ele>991.617</ele>
        <time>2021-10-14T15:38:41Z</time>
      </trkpt>
      <trkpt lat="42.508555" lon="2.225948">
        <ele>993.725</ele>
        <time>2021-10-14T15:39:21Z</time>
      </trkpt>
      <trkpt lat="42.508602" lon="2.226170">
        <ele>990.632</ele>
        <time>2021-10-14T15:40:01Z</time>
      </trkpt>
      <trkpt lat="42.508623" lon="2.226352">
        <ele>991.346</ele>
        <time>2021-10-14T15:40:41Z</time>
      </trkpt>
      <trkpt lat="42.508677" lon="2.226472">
        <ele>997.629</ele>
        <time>2021-10-14T15:41:21Z</time>
      </trkpt>
      <trkpt lat="42.508739" lon="2.226650">
        <ele>1004.099</ele>
        <time>2021-10-14T15:42:01Z</time>
      </trkpt>
      <trkpt lat="42.508750" lon="2.226811">
        <ele>1007.938</ele>
        <time>2021-10-14T15:42:41Z</time>
      </trkpt>
      <trkpt lat="42.508725" lon="2.226962">
        <ele>1008.117</ele>
        <time>2021-10-14T15:43:21Z</time>
      </trkpt>
      <trkpt lat="42.508691" lon="2.227083">
        <ele>1007.148</ele>
        <time>2021-10-14T15:44:01Z</time>
      </trkpt>
      <trkpt lat="42.508593" lon="2.227341">
        <ele>1002.761</ele>
        <time>2021-10-14T15:44:41Z</time>
      </trkpt>
      <trkpt lat="42.508629" lon="2.227527">
        <ele>1007.017</ele>
        <time>2021-10-14T15:45:21Z</time>
      </trkpt>
      <trkpt lat="42.508610" lon="2.227818">
        <ele>1008.508</ele>
        <time>2021-10-14T15:46:01Z</time>
      </trkpt>
      <trkpt lat="42.508595" lon="2.227918">
        <ele>1011.122</ele>
        <time>2021-10-14T15:46:41Z</time>
      </trkpt>
      <trkpt lat="42.508640" lon="2.228155">
        <ele>1013.080</ele>
        <time>2021-10-14T15:47:21Z</time>
      </trkpt>
      <trkpt lat="42.508587" lon="2.228383">
        <ele>1013.617</ele>
        <time>2021-10-14T15:48:01Z</time>
      </trkpt>
      <trkpt lat="42.508603" lon="2.228626">
        <ele>1013.081</ele>
        <time>2021-10-14T15:48:41Z</time>
      </trkpt>
      <trkpt lat="42.508588" lon="2.228832">
        <ele>1016.914</ele>
        <time>2021-10-14T15:49:21Z</time>
      </trkpt>
      <trkpt lat="42.508558" lon="2.229150">
        <ele>1025.484</ele>
        <time>2021-10-14T15:50:01Z</time>
      </trkpt>
      <trkpt lat="42.508470" lon="2.229288">
        <ele>1028.383</ele>
        <time>2021-10-14T15:50:41Z</time>
      </trkpt>
      <trkpt lat="42.508391" lon="2.229296">
        <ele>1025.922</ele>
        <time>2021-10-14T15:51:21Z</time>
      </trkpt>
      <trkpt lat="42.508394" lon="2.229435">
        <ele>1026.979</ele>
        <time>2021-10-14T15:52:01Z</time>
      </trkpt>
      <trkpt lat="42.508426" lon="2.229551">
        <ele>1033.905</ele>
        <time>2021-10-14T15:52:41Z</time>
      </trkpt>
      <trkpt lat="42.508411" lon="2.229772">
        <ele>1043.325</ele>
        <time>2021-10-14T15:53:21Z</time>
      </trkpt>
      <trkpt lat="42.508293" lon="2.230023">
        <ele>1048.708</ele>
        <time>2021-10-14T15:54:01Z</time>
      </trkpt>
      <trkpt lat="42.508134" lon="2.230187">
        <ele>1045.935</ele>
        <time>2021-10-14T15:54:41Z</time>
      </trkpt>
      <trkpt lat="42.507997" lon="2.230367">
        <ele>1047.323</ele>
        <time>2021-10-14T15:55:21Z</time>
      </trkpt>
      <trkpt lat="42.507932" lon="2.230433">
        <ele>1046.490</ele>
        <time>2021-10-14T15:56:01Z</time>
      </trkpt>
      <trkpt lat="42.507832" lon="2.230602">
        <ele>1044.474</ele>
        <time>2021-10-14T15:56:41Z</time>
      </trkpt>
      <trkpt lat="42.507670" lon="2.230841">
        <ele>1045.387</ele>
        <time>2021-10-14T15:57:21Z</time>
      </trkpt>
      <trkpt lat="42.507518" lon="2.230981">
        <ele>1051.777</ele>
        <time>2021-10-14T15:58:01Z</time>
      </trkpt>
      <trkpt lat="42.507446" lon="2.230959">
        <ele>1047.316</ele>
        <time>2021-10-14T15:58:41Z</time>
      </trkpt>
      <trkpt lat="42.507353" lon="2.230955">
        <ele>1043.585</ele>
        <time>2021-10-14T15:59:21Z</time>
      </trkpt>
      <trkpt lat="42.507136" lon="2.231122">
        <ele>1046.192</ele>
        <time>2021-10-14T16:00:01Z</time>
      </trkpt>
      <trkpt lat="42.507015" lon="2.231107">
        <ele>1043.273</ele>
        <time>2021-10-14T16:00:41Z</time>
      </trkpt>
      <trkpt lat="42.506811" lon="2.231133">
        <ele>1043.720</ele>
        <time>2021-10-14T16:01:21Z</time>
      </trkpt>
      <trkpt lat="42.506665" lon="2.231145">
        <ele>1045.508</ele>
        <time>2021-10-14T16:02:01Z</time>
      </trkpt>
      <trkpt lat="42.506466" lon="2.231097">
        <ele>1051.267</ele>
        <time>2021-10-14T16:02:41Z</time>
      </trkpt>
      <trkpt lat="42.506425" lon="2.231084">
        <ele>1053.115</ele>
        <time>2021-10-14T16:03:21Z</time>
      </trkpt>
      <trkpt lat="42.506386" lon="2.231011">
        <ele>1055.952</ele>
        <time>2021-10-14T16:04:01Z</time>
      </trkpt>
      <trkpt lat="42.506364" lon="2.230871">
        <ele>1058.946</ele>
        <time>2021-10-14T16:04:41Z</time>
      </trkpt>
      <trkpt lat="42.506277" lon="2.231000">
        <ele>1058.399</ele>
        <time>2021-10-14T16:05:21Z</time>
      </trkpt>
      <trkpt lat="42.505980" lon="2.231284">
        <ele>1092.749</ele>
        <time>2021-10-14T16:06:01Z</time>
      </trkpt>
      <trkpt lat="42.505848" lon="2.231373">
        <ele>1122.188</ele>
        <time>2021-10-14T16:06:41Z</time>
      </trkpt>
      <trkpt lat="42.505759" lon="2.231412">
        <ele>1119.687</ele>
        <time>2021-10-14T16:07:21Z</time>
      </trkpt>
      <trkpt lat="42.505652" lon="2.231477">
        <ele>1116.283</ele>
        <time>2021-10-14T16:08:01Z</time>
      </trkpt>
      <trkpt lat="42.505491" lon="2.231466">
        <ele>1096.725</ele>
        <time>2021-10-14T16:08:41Z</time>
      </trkpt>
      <trkpt lat="42.505413" lon="2.231437">
        <ele>1083.617</ele>
        <time>2021-10-14T16:09:21Z</time>
      </trkpt>
      <trkpt lat="42.505267" lon="2.231376">
        <ele>1066.708</ele>
        <time>2021-10-14T16:10:01Z</time>
      </trkpt>
      <trkpt lat="42.505112" lon="2.231333">
        <ele>1076.946</ele>
        <time>2021-10-14T16:10:41Z</time>
      </trkpt>
      <trkpt lat="42.505026" lon="2.231176">
        <ele>1079.114</ele>
        <time>2021-10-14T16:11:21Z</time>
      </trkpt>
      <trkpt lat="42.505085" lon="2.230970">
        <ele>1076.091</ele>
        <time>2021-10-14T16:12:01Z</time>
      </trkpt>
      <trkpt lat="42.505180" lon="2.230890">
        <ele>1073.795</ele>
        <time>2021-10-14T16:12:41Z</time>
      </trkpt>
      <trkpt lat="42.505212" lon="2.230688">
        <ele>1076.158</ele>
        <time>2021-10-14T16:13:21Z</time>
      </trkpt>
      <trkpt lat="42.505333" lon="2.230392">
        <ele>1086.078</ele>
        <time>2021-10-14T16:14:01Z</time>
      </trkpt>
      <trkpt lat="42.505331" lon="2.230223">
        <ele>1086.377</ele>
        <time>2021-10-14T16:14:41Z</time>
      </trkpt>
      <trkpt lat="42.505255" lon="2.230112">
        <ele>1076.236</ele>
        <time>2021-10-14T16:15:21Z</time>
      </trkpt>
      <trkpt lat="42.505169" lon="2.230080">
        <ele>1078.946</ele>
        <time>2021-10-14T16:16:01Z</time>
      </trkpt>
      <trkpt lat="42.505107" lon="2.230000">
        <ele>1079.388</ele>
        <time>2021-10-14T16:16:41Z</time>
      </trkpt>
      <trkpt lat="42.505127" lon="2.229910">
        <ele>1079.016</ele>
        <time>2021-10-14T16:17:21Z</time>
      </trkpt>
      <trkpt lat="42.505009" lon="2.229844">
        <ele>1080.208</ele>
        <time>2021-10-14T16:18:01Z</time>
      </trkpt>
      <trkpt lat="42.504935" lon="2.229896">
        <ele>1081.962</ele>
        <time>2021-10-14T16:18:41Z</time>
      </trkpt>
      <trkpt lat="42.504912" lon="2.229970">
        <ele>1082.190</ele>
        <time>2021-10-14T16:19:21Z</time>
      </trkpt>
      <trkpt lat="42.504851" lon="2.230125">
        <ele>1083.617</ele>
        <time>2021-10-14T16:20:01Z</time>
      </trkpt>
      <trkpt lat="42.504766" lon="2.230209">
        <ele>1082.491</ele>
        <time>2021-10-14T16:20:41Z</time>
      </trkpt>
      <trkpt lat="42.504718" lon="2.230287">
        <ele>1081.334</ele>
        <time>2021-10-14T16:21:21Z</time>
      </trkpt>
      <trkpt lat="42.504654" lon="2.230303">
        <ele>1081.614</ele>
        <time>2021-10-14T16:22:01Z</time>
      </trkpt>
      <trkpt lat="42.504564" lon="2.230415">
        <ele>1083.883</ele>
        <time>2021-10-14T16:22:41Z</time>
      </trkpt>
      <trkpt lat="42.504484" lon="2.230418">
        <ele>1083.342</ele>
        <time>2021-10-14T16:23:21Z</time>
      </trkpt>
      <trkpt lat="42.504376" lon="2.230309">
        <ele>1086.236</ele>
        <time>2021-10-14T16:24:01Z</time>
      </trkpt>
      <trkpt lat="42.504421" lon="2.230335">
        <ele>1083.517</ele>
        <time>2021-10-14T16:24:41Z</time>
      </trkpt>
      <trkpt lat="42.504504" lon="2.230419">
        <ele>1083.518</ele>
        <time>2021-10-14T16:25:21Z</time>
      </trkpt>
      <trkpt lat="42.504598" lon="2.230380">
        <ele>1083.308</ele>
        <time>2021-10-14T16:26:01Z</time>
      </trkpt>
      <trkpt lat="42.504685" lon="2.230294">
        <ele>1081.431</ele>
        <time>2021-10-14T16:26:41Z</time>
      </trkpt>
      <trkpt lat="42.504746" lon="2.230251">
        <ele>1081.969</ele>
        <time>2021-10-14T16:27:21Z</time>
      </trkpt>
      <trkpt lat="42.504782" lon="2.230184">
        <ele>1082.826</ele>
        <time>2021-10-14T16:28:01Z</time>
      </trkpt>
      <trkpt lat="42.504867" lon="2.230082">
        <ele>1083.280</ele>
        <time>2021-10-14T16:28:41Z</time>
      </trkpt>
      <trkpt lat="42.504919" lon="2.229940">
        <ele>1082.143</ele>
        <time>2021-10-14T16:29:21Z</time>
      </trkpt>
      <trkpt lat="42.504956" lon="2.229890">
        <ele>1081.613</ele>
        <time>2021-10-14T16:30:01Z</time>
      </trkpt>
      <trkpt lat="42.505038" lon="2.229879">
        <ele>1080.212</ele>
        <time>2021-10-14T16:30:41Z</time>
      </trkpt>
      <trkpt lat="42.505143" lon="2.229929">
        <ele>1078.771</ele>
        <time>2021-10-14T16:31:21Z</time>
      </trkpt>
      <trkpt lat="42.505100" lon="2.230019">
        <ele>1079.948</ele>
        <time>2021-10-14T16:32:01Z</time>
      </trkpt>
      <trkpt lat="42.505203" lon="2.230116">
        <ele>1078.261</ele>
        <time>2021-10-14T16:32:41Z</time>
      </trkpt>
      <trkpt lat="42.505282" lon="2.230140">
        <ele>1076.317</ele>
        <time>2021-10-14T16:33:21Z</time>
      </trkpt>
      <trkpt lat="42.505346" lon="2.230256">
        <ele>1089.408</ele>
        <time>2021-10-14T16:34:01Z</time>
      </trkpt>
      <trkpt lat="42.505323" lon="2.230435">
        <ele>1083.782</ele>
        <time>2021-10-14T16:34:41Z</time>
      </trkpt>
      <trkpt lat="42.505187" lon="2.230721">
        <ele>1076.520</ele>
        <time>2021-10-14T16:35:21Z</time>
      </trkpt>
      <trkpt lat="42.505178" lon="2.230914">
        <ele>1073.367</ele>
        <time>2021-10-14T16:36:01Z</time>
      </trkpt>
      <trkpt lat="42.505081" lon="2.231002">
        <ele>1075.851</ele>
        <time>2021-10-14T16:36:41Z</time>
      </trkpt>
      <trkpt lat="42.505019" lon="2.231200">
        <ele>1080.134</ele>
        <time>2021-10-14T16:37:21Z</time>
      </trkpt>
      <trkpt lat="42.505106" lon="2.231321">
        <ele>1077.134</ele>
        <time>2021-10-14T16:38:01Z</time>
      </trkpt>
      <trkpt lat="42.505231" lon="2.231356">
        <ele>1069.023</ele>
        <time>2021-10-14T16:38:41Z</time>
      </trkpt>
      <trkpt lat="42.505362" lon="2.231408">
        <ele>1075.162</ele>
        <time>2021-10-14T16:39:21Z</time>
      </trkpt>
      <trkpt lat="42.505454" lon="2.231456">
        <ele>1090.867</ele>
        <time>2021-10-14T16:40:01Z</time>
      </trkpt>
      <trkpt lat="42.505580" lon="2.231471">
        <ele>1108.181</ele>
        <time>2021-10-14T16:40:41Z</time>
      </trkpt>
      <trkpt lat="42.505714" lon="2.231475">
        <ele>1122.119</ele>
        <time>2021-10-14T16:41:21Z</time>
      </trkpt>
      <trkpt lat="42.505792" lon="2.231375">
        <ele>1118.808</ele>
        <time>2021-10-14T16:42:01Z</time>
      </trkpt>
      <trkpt lat="42.505908" lon="2.231333">
        <ele>1108.014</ele>
        <time>2021-10-14T16:42:41Z</time>
      </trkpt>
      <trkpt lat="42.506030" lon="2.231222">
        <ele>1079.082</ele>
        <time>2021-10-14T16:43:21Z</time>
      </trkpt>
      <trkpt lat="42.506206" lon="2.231072">
        <ele>1058.239</ele>
        <time>2021-10-14T16:44:01Z</time>
      </trkpt>
      <trkpt lat="42.506320" lon="2.230921">
        <ele>1059.013</ele>
        <time>2021-10-14T16:44:41Z</time>
      </trkpt>
      <trkpt lat="42.506382" lon="2.230933">
        <ele>1057.496</ele>
        <time>2021-10-14T16:45:21Z</time>
      </trkpt>
      <trkpt lat="42.506405" lon="2.231058">
        <ele>1054.466</ele>
        <time>2021-10-14T16:46:01Z</time>
      </trkpt>
      <trkpt lat="42.506557" lon="2.231125">
        <ele>1048.775</ele>
        <time>2021-10-14T16:46:41Z</time>
      </trkpt>
      <trkpt lat="42.506734" lon="2.231141">
        <ele>1044.744</ele>
        <time>2021-10-14T16:47:21Z</time>
      </trkpt>
      <trkpt lat="42.506893" lon="2.231115">
        <ele>1042.499</ele>
        <time>2021-10-14T16:48:01Z</time>
      </trkpt>
      <trkpt lat="42.507070" lon="2.231120">
        <ele>1044.807</ele>
        <time>2021-10-14T16:48:41Z</time>
      </trkpt>
      <trkpt lat="42.507158" lon="2.231120">
        <ele>1046.427</ele>
        <time>2021-10-14T16:49:21Z</time>
      </trkpt>
      <trkpt lat="42.507391" lon="2.230947">
        <ele>1044.308</ele>
        <time>2021-10-14T16:50:01Z</time>
      </trkpt>
      <trkpt lat="42.507493" lon="2.230962">
        <ele>1049.357</ele>
        <time>2021-10-14T16:50:41Z</time>
      </trkpt>
      <trkpt lat="42.507550" lon="2.230958">
        <ele>1050.535</ele>
        <time>2021-10-14T16:51:21Z</time>
      </trkpt>
      <trkpt lat="42.507699" lon="2.230784">
        <ele>1043.912</ele>
        <time>2021-10-14T16:52:01Z</time>
      </trkpt>
      <trkpt lat="42.507804" lon="2.230631">
        <ele>1042.696</ele>
        <time>2021-10-14T16:52:41Z</time>
      </trkpt>
      <trkpt lat="42.507883" lon="2.230519">
        <ele>1046.199</ele>
        <time>2021-10-14T16:53:21Z</time>
      </trkpt>
      <trkpt lat="42.507959" lon="2.230401">
        <ele>1046.719</ele>
        <time>2021-10-14T16:54:01Z</time>
      </trkpt>
      <trkpt lat="42.508071" lon="2.230275">
        <ele>1045.188</ele>
        <time>2021-10-14T16:54:41Z</time>
      </trkpt>
      <trkpt lat="42.508214" lon="2.230106">
        <ele>1047.717</ele>
        <time>2021-10-14T16:55:21Z</time>
      </trkpt>
      <trkpt lat="42.508339" lon="2.230037">
        <ele>1052.711</ele>
        <time>2021-10-14T16:56:01Z</time>
      </trkpt>
      <trkpt lat="42.508462" lon="2.229926">
        <ele>1056.721</ele>
        <time>2021-10-14T16:56:41Z</time>
      </trkpt>
      <trkpt lat="42.508611" lon="2.229718">
        <ele>1056.703</ele>
        <time>2021-10-14T16:57:21Z</time>
      </trkpt>
      <trkpt lat="42.508861" lon="2.229441">
        <ele>1058.808</ele>
        <time>2021-10-14T16:58:01Z</time>
      </trkpt>
      <trkpt lat="42.509010" lon="2.229399">
        <ele>1066.519</ele>
        <time>2021-10-14T16:58:41Z</time>
      </trkpt>
      <trkpt lat="42.509087" lon="2.229267">
        <ele>1065.777</ele>
        <time>2021-10-14T16:59:21Z</time>
      </trkpt>
      <trkpt lat="42.509155" lon="2.228888">
        <ele>1065.724</ele>
        <time>2021-10-14T17:00:01Z</time>
      </trkpt>
      <trkpt lat="42.509262" lon="2.228611">
        <ele>1075.618</ele>
        <time>2021-10-14T17:00:41Z</time>
      </trkpt>
      <trkpt lat="42.509308" lon="2.228335">
        <ele>1075.871</ele>
        <time>2021-10-14T17:01:21Z</time>
      </trkpt>
      <trkpt lat="42.509281" lon="2.227939">
        <ele>1076.181</ele>
        <time>2021-10-14T17:02:01Z</time>
      </trkpt>
      <trkpt lat="42.509205" lon="2.227792">
        <ele>1072.470</ele>
        <time>2021-10-14T17:02:41Z</time>
      </trkpt>
      <trkpt lat="42.509273" lon="2.227797">
        <ele>1079.259</ele>
        <time>2021-10-14T17:03:21Z</time>
      </trkpt>
      <trkpt lat="42.509291" lon="2.227574">
        <ele>1085.666</ele>
        <time>2021-10-14T17:04:01Z</time>
      </trkpt>
      <trkpt lat="42.509431" lon="2.227358">
        <ele>1099.229</ele>
        <time>2021-10-14T17:04:41Z</time>
      </trkpt>
      <trkpt lat="42.509513" lon="2.226967">
        <ele>1101.221</ele>
        <time>2021-10-14T17:05:21Z</time>
      </trkpt>
      <trkpt lat="42.509518" lon="2.226754">
        <ele>1104.008</ele>
        <time>2021-10-14T17:06:01Z</time>
      </trkpt>
      <trkpt lat="42.509626" lon="2.226680">
        <ele>1117.074</ele>
        <time>2021-10-14T17:06:41Z</time>
      </trkpt>
      <trkpt lat="42.509766" lon="2.226402">
        <ele>1127.682</ele>
        <time>2021-10-14T17:07:21Z</time>
      </trkpt>
      <trkpt lat="42.509989" lon="2.226181">
        <ele>1137.989</ele>
        <time>2021-10-14T17:08:01Z</time>
      </trkpt>
      <trkpt lat="42.510261" lon="2.225934">
        <ele>1137.073</ele>
        <time>2021-10-14T17:08:41Z</time>
      </trkpt>
      <trkpt lat="42.510356" lon="2.225815">
        <ele>1127.316</ele>
        <time>2021-10-14T17:09:21Z</time>
      </trkpt>
      <trkpt lat="42.510462" lon="2.225707">
        <ele>1122.216</ele>
        <time>2021-10-14T17:10:01Z</time>
      </trkpt>
      <trkpt lat="42.510570" lon="2.225681">
        <ele>1123.475</ele>
        <time>2021-10-14T17:10:41Z</time>
      </trkpt>
      <trkpt lat="42.510631" lon="2.225687">
        <ele>1118.214</ele>
        <time>2021-10-14T17:11:21Z</time>
      </trkpt>
      <trkpt lat="42.510698" lon="2.225816">
        <ele>1117.896</ele>
        <time>2021-10-14T17:12:01Z</time>
      </trkpt>
      <trkpt lat="42.510747" lon="2.225795">
        <ele>1111.831</ele>
        <time>2021-10-14T17:12:41Z</time>
      </trkpt>
      <trkpt lat="42.510708" lon="2.225696">
        <ele>1111.624</ele>
        <time>2021-10-14T17:13:21Z</time>
      </trkpt>
      <trkpt lat="42.510725" lon="2.225569">
        <ele>1104.708</ele>
        <time>2021-10-14T17:14:01Z</time>
      </trkpt>
      <trkpt lat="42.510829" lon="2.225519">
        <ele>1094.747</ele>
        <time>2021-10-14T17:14:41Z</time>
      </trkpt>
      <trkpt lat="42.510918" lon="2.225622">
        <ele>1088.975</ele>
        <time>2021-10-14T17:15:21Z</time>
      </trkpt>
      <trkpt lat="42.510958" lon="2.225623">
        <ele>1084.662</ele>
        <time>2021-10-14T17:16:01Z</time>
      </trkpt>
      <trkpt lat="42.511071" lon="2.225926">
        <ele>1080.046</ele>
        <time>2021-10-14T17:16:41Z</time>
      </trkpt>
      <trkpt lat="42.511083" lon="2.226039">
        <ele>1083.289</ele>
        <time>2021-10-14T17:17:21Z</time>
      </trkpt>
      <trkpt lat="42.511245" lon="2.226231">
        <ele>1085.839</ele>
        <time>2021-10-14T17:18:01Z</time>
      </trkpt>
      <trkpt lat="42.511299" lon="2.226294">
        <ele>1088.028</ele>
        <time>2021-10-14T17:18:41Z</time>
      </trkpt>
      <trkpt lat="42.511672" lon="2.226434">
        <ele>1104.657</ele>
        <time>2021-10-14T17:19:21Z</time>
      </trkpt>
      <trkpt lat="42.511762" lon="2.226331">
        <ele>1089.056</ele>
        <time>2021-10-14T17:20:01Z</time>
      </trkpt>
      <trkpt lat="42.512069" lon="2.226321">
        <ele>1087.059</ele>
        <time>2021-10-14T17:20:41Z</time>
      </trkpt>
      <trkpt lat="42.512364" lon="2.226444">
        <ele>1095.414</ele>
        <time>2021-10-14T17:21:21Z</time>
      </trkpt>
      <trkpt lat="42.512664" lon="2.226364">
        <ele>1083.908</ele>
        <time>2021-10-14T17:22:01Z</time>
      </trkpt>
      <trkpt lat="42.512754" lon="2.226168">
        <ele>1066.443</ele>
        <time>2021-10-14T17:22:41Z</time>
      </trkpt>
      <trkpt lat="42.512842" lon="2.225837">
        <ele>1054.131</ele>
        <time>2021-10-14T17:23:21Z</time>
      </trkpt>
      <trkpt lat="42.512775" lon="2.225556">
        <ele>1028.988</ele>
        <time>2021-10-14T17:24:01Z</time>
      </trkpt>
      <trkpt lat="42.512839" lon="2.225406">
        <ele>1030.662</ele>
        <time>2021-10-14T17:24:41Z</time>
      </trkpt>
      <trkpt lat="42.512769" lon="2.225150">
        <ele>1015.375</ele>
        <time>2021-10-14T17:25:21Z</time>
      </trkpt>
      <trkpt lat="42.512864" lon="2.225168">
        <ele>1026.695</ele>
        <time>2021-10-14T17:26:01Z</time>
      </trkpt>
      <trkpt lat="42.512847" lon="2.224875">
        <ele>1018.564</ele>
        <time>2021-10-14T17:26:41Z</time>
      </trkpt>
      <trkpt lat="42.513059" lon="2.224748">
        <ele>1022.013</ele>
        <time>2021-10-14T17:27:21Z</time>
      </trkpt>
      <trkpt lat="42.513037" lon="2.224811">
        <ele>1026.494</ele>
        <time>2021-10-14T17:28:01Z</time>
      </trkpt>
      <trkpt lat="42.513221" lon="2.224962">
        <ele>1035.157</ele>
        <time>2021-10-14T17:28:41Z</time>
      </trkpt>
      <trkpt lat="42.513213" lon="2.224867">
        <ele>1027.522</ele>
        <time>2021-10-14T17:29:21Z</time>
      </trkpt>
      <trkpt lat="42.513385" lon="2.224621">
        <ele>1004.808</ele>
        <time>2021-10-14T17:30:01Z</time>
      </trkpt>
      <trkpt lat="42.513664" lon="2.224539">
        <ele>998.347</ele>
        <time>2021-10-14T17:30:41Z</time>
      </trkpt>
      <trkpt lat="42.513971" lon="2.224635">
        <ele>1002.115</ele>
        <time>2021-10-14T17:31:21Z</time>
      </trkpt>
      <trkpt lat="42.514137" lon="2.224677">
        <ele>1002.782</ele>
        <time>2021-10-14T17:32:01Z</time>
      </trkpt>
      <trkpt lat="42.514414" lon="2.224754">
        <ele>1008.446</ele>
        <time>2021-10-14T17:32:41Z</time>
      </trkpt>
      <trkpt lat="42.514516" lon="2.224764">
        <ele>1013.069</ele>
        <time>2021-10-14T17:33:21Z</time>
      </trkpt>
      <trkpt lat="42.514820" lon="2.224571">
        <ele>1004.399</ele>
        <time>2021-10-14T17:34:01Z</time>
      </trkpt>
      <trkpt lat="42.514946" lon="2.224550">
        <ele>1003.378</ele>
        <time>2021-10-14T17:34:41Z</time>
      </trkpt>
      <trkpt lat="42.515211" lon="2.224380">
        <ele>997.487</ele>
        <time>2021-10-14T17:35:21Z</time>
      </trkpt>
      <trkpt lat="42.515496" lon="2.224338">
        <ele>993.043</ele>
        <time>2021-10-14T17:36:01Z</time>
      </trkpt>
      <trkpt lat="42.515774" lon="2.224565">
        <ele>990.464</ele>
        <time>2021-10-14T17:36:41Z</time>
      </trkpt>
      <trkpt lat="42.515942" lon="2.224880">
        <ele>1001.610</ele>
        <time>2021-10-14T17:37:21Z</time>
      </trkpt>
      <trkpt lat="42.516145" lon="2.224883">
        <ele>999.908</ele>
        <time>2021-10-14T17:38:01Z</time>
      </trkpt>
      <trkpt lat="42.516441" lon="2.224710">
        <ele>993.832</ele>
        <time>2021-10-14T17:38:41Z</time>
      </trkpt>
      <trkpt lat="42.516402" lon="2.224639">
        <ele>986.510</ele>
        <time>2021-10-14T17:39:21Z</time>
      </trkpt>
      <trkpt lat="42.516558" lon="2.224507">
        <ele>978.417</ele>
        <time>2021-10-14T17:40:01Z</time>
      </trkpt>
      <trkpt lat="42.516522" lon="2.224404">
        <ele>969.111</ele>
        <time>2021-10-14T17:40:41Z</time>
      </trkpt>
      <trkpt lat="42.516632" lon="2.224312">
        <ele>964.714</ele>
        <time>2021-10-14T17:41:21Z</time>
      </trkpt>
      <trkpt lat="42.516731" lon="2.223904">
        <ele>944.324</ele>
        <time>2021-10-14T17:42:01Z</time>
      </trkpt>
      <trkpt lat="42.516903" lon="2.223760">
        <ele>948.313</ele>
        <time>2021-10-14T17:42:41Z</time>
      </trkpt>
      <trkpt lat="42.517001" lon="2.223493">
        <ele>935.472</ele>
        <time>2021-10-14T17:43:21Z</time>
      </trkpt>
      <trkpt lat="42.517106" lon="2.223459">
        <ele>935.039</ele>
        <time>2021-10-14T17:44:01Z</time>
      </trkpt>
      <trkpt lat="42.517176" lon="2.223317">
        <ele>926.201</ele>
        <time>2021-10-14T17:44:41Z</time>
      </trkpt>
      <trkpt lat="42.517388" lon="2.223308">
        <ele>917.921</ele>
        <time>2021-10-14T17:45:21Z</time>
      </trkpt>
      <trkpt lat="42.517409" lon="2.223255">
        <ele>913.708</ele>
        <time>2021-10-14T17:46:01Z</time>
      </trkpt>
      <trkpt lat="42.517497" lon="2.223303">
        <ele>911.891</ele>
        <time>2021-10-14T17:46:41Z</time>
      </trkpt>
      <trkpt lat="42.517483" lon="2.223187">
        <ele>907.369</ele>
        <time>2021-10-14T17:47:21Z</time>
      </trkpt>
      <trkpt lat="42.517593" lon="2.223299">
        <ele>904.136</ele>
        <time>2021-10-14T17:48:01Z</time>
      </trkpt>
      <trkpt lat="42.517603" lon="2.223196">
        <ele>899.860</ele>
        <time>2021-10-14T17:48:41Z</time>
      </trkpt>
      <trkpt lat="42.517839" lon="2.223468">
        <ele>902.943</ele>
        <time>2021-10-14T17:49:21Z</time>
      </trkpt>
      <trkpt lat="42.518079" lon="2.223491">
        <ele>910.473</ele>
        <time>2021-10-14T17:50:01Z</time>
      </trkpt>
      <trkpt lat="42.518289" lon="2.223220">
        <ele>904.242</ele>
        <time>2021-10-14T17:50:41Z</time>
      </trkpt>
      <trkpt lat="42.518490" lon="2.222896">
        <ele>906.391</ele>
        <time>2021-10-14T17:51:21Z</time>
      </trkpt>
      <trkpt lat="42.518697" lon="2.222579">
        <ele>908.982</ele>
        <time>2021-10-14T17:52:01Z</time>
      </trkpt>
      <trkpt lat="42.518926" lon="2.222204">
        <ele>909.043</ele>
        <time>2021-10-14T17:52:41Z</time>
      </trkpt>
      <trkpt lat="42.519050" lon="2.222001">
        <ele>905.517</ele>
        <time>2021-10-14T17:53:21Z</time>
      </trkpt>
      <trkpt lat="42.519202" lon="2.221883">
        <ele>905.908</ele>
        <time>2021-10-14T17:54:01Z</time>
      </trkpt>
      <trkpt lat="42.519539" lon="2.221741">
        <ele>903.786</ele>
        <time>2021-10-14T17:54:41Z</time>
      </trkpt>
      <trkpt lat="42.519874" lon="2.221648">
        <ele>900.444</ele>
        <time>2021-10-14T17:55:21Z</time>
      </trkpt>
      <trkpt lat="42.520205" lon="2.221684">
        <ele>899.211</ele>
        <time>2021-10-14T17:56:01Z</time>
      </trkpt>
      <trkpt lat="42.520463" lon="2.221700">
        <ele>890.985</ele>
        <time>2021-10-14T17:56:41Z</time>
      </trkpt>
      <trkpt lat="42.520800" lon="2.221773">
        <ele>886.258</ele>
        <time>2021-10-14T17:57:21Z</time>
      </trkpt>
      <trkpt lat="42.521074" lon="2.221917">
        <ele>902.368</ele>
        <time>2021-10-14T17:58:01Z</time>
      </trkpt>
      <trkpt lat="42.521315" lon="2.221979">
        <ele>904.917</ele>
        <time>2021-10-14T17:58:41Z</time>
      </trkpt>
      <trkpt lat="42.521486" lon="2.221930">
        <ele>893.786</ele>
        <time>2021-10-14T17:59:21Z</time>
      </trkpt>
      <trkpt lat="42.521719" lon="2.221811">
        <ele>869.365</ele>
        <time>2021-10-14T18:00:01Z</time>
      </trkpt>
      <trkpt lat="42.521928" lon="2.221780">
        <ele>857.368</ele>
        <time>2021-10-14T18:00:41Z</time>
      </trkpt>
      <trkpt lat="42.522170" lon="2.221763">
        <ele>850.314</ele>
        <time>2021-10-14T18:01:21Z</time>
      </trkpt>
      <trkpt lat="42.522362" lon="2.221742">
        <ele>846.708</ele>
        <time>2021-10-14T18:02:01Z</time>
      </trkpt>
      <trkpt lat="42.522485" lon="2.221755">
        <ele>845.294</ele>
        <time>2021-10-14T18:02:41Z</time>
      </trkpt>
      <trkpt lat="42.522615" lon="2.221490">
        <ele>840.752</ele>
        <time>2021-10-14T18:03:21Z</time>
      </trkpt>
      <trkpt lat="42.522789" lon="2.221473">
        <ele>839.639</ele>
        <time>2021-10-14T18:04:01Z</time>
      </trkpt>
      <trkpt lat="42.522987" lon="2.221448">
        <ele>838.533</ele>
        <time>2021-10-14T18:04:41Z</time>
      </trkpt>
    </trkseg>
  </trk></gpx>